createdAt,value
2018-12-26T00:04:21.387Z,10.96
2018-12-26T00:09:27.100Z,10.95
2018-12-26T00:14:32.459Z,11.00
2018-12-26T00:19:37.995Z,11.04
2018-12-26T00:24:43.437Z,10.99
2018-12-26T00:29:49.007Z,11.03
2018-12-26T00:34:54.591Z,10.99
2018-12-26T00:40:00.169Z,10.96
2018-12-26T00:45:05.742Z,10.92
2018-12-26T00:50:11.241Z,10.92
2018-12-26T00:55:16.677Z,10.88
2018-12-26T01:00:22.090Z,10.95
2018-12-26T01:05:27.517Z,10.88
2018-12-26T01:10:32.870Z,10.89
2018-12-26T01:15:38.275Z,10.84
2018-12-26T01:20:43.940Z,10.80
2018-12-26T01:25:49.370Z,10.84
2018-12-26T01:30:54.739Z,10.86
2018-12-26T01:36:00.098Z,10.85
2018-12-26T01:41:05.429Z,10.85
2018-12-26T01:46:11.329Z,10.94
2018-12-26T01:51:16.660Z,11.03
2018-12-26T01:56:27.902Z,10.95
2018-12-26T02:01:29.205Z,11.07
2018-12-26T02:06:34.480Z,11.10
2018-12-26T02:11:40.158Z,11.07
2018-12-26T02:16:45.491Z,11.05
2018-12-26T02:21:51.081Z,10.90
2018-12-26T02:26:56.482Z,10.79
2018-12-26T02:32:01.867Z,10.74
2018-12-26T02:37:07.246Z,10.70
2018-12-26T02:42:12.803Z,10.54
2018-12-26T02:47:18.117Z,10.47
2018-12-26T02:52:23.544Z,10.51
2018-12-26T02:57:28.909Z,10.67
2018-12-26T03:02:34.431Z,10.71
2018-12-26T03:13:04.105Z,10.68
2018-12-26T03:23:27.754Z,10.78
2018-12-26T03:28:33.167Z,10.82
2018-12-26T03:38:52.578Z,10.92
2018-12-26T03:43:57.974Z,11.04
2018-12-26T03:49:03.395Z,11.23
2018-12-26T03:54:08.773Z,11.36
2018-12-26T03:59:14.414Z,11.22
2018-12-26T04:04:20.010Z,10.97
2018-12-26T04:09:25.568Z,10.75
2018-12-26T04:14:31.071Z,10.72
2018-12-26T04:19:36.745Z,10.73
2018-12-26T04:24:42.149Z,10.63
2018-12-26T04:29:47.508Z,10.66
2018-12-26T04:34:52.809Z,10.75
2018-12-26T04:39:58.204Z,10.90
2018-12-26T04:45:03.583Z,11.04
2018-12-26T04:50:09.112Z,11.19
2018-12-26T04:55:14.670Z,11.12
2018-12-26T05:00:20.146Z,11.01
2018-12-26T05:05:25.561Z,11.10
2018-12-26T05:10:30.909Z,11.10
2018-12-26T05:15:36.224Z,11.06
2018-12-26T05:20:41.545Z,10.95
2018-12-26T05:25:46.958Z,10.84
2018-12-26T05:30:52.638Z,10.66
2018-12-26T05:35:58.002Z,10.68
2018-12-26T05:41:03.468Z,10.64
2018-12-26T05:46:08.823Z,10.44
2018-12-26T05:51:14.242Z,10.56
2018-12-26T05:56:19.698Z,10.54
2018-12-26T06:01:25.123Z,10.64
2018-12-26T06:06:30.489Z,10.51
2018-12-26T06:11:35.857Z,10.48
2018-12-26T06:16:41.158Z,10.72
2018-12-26T06:21:46.623Z,10.75
2018-12-26T06:26:51.882Z,10.71
2018-12-26T06:31:57.435Z,10.74
2018-12-26T06:37:02.763Z,10.59
2018-12-26T06:42:08.306Z,10.54
2018-12-26T06:47:13.608Z,10.61
2018-12-26T06:52:19.033Z,10.75
2018-12-26T06:57:24.339Z,10.72
2018-12-26T07:02:29.762Z,10.59
2018-12-26T07:07:35.186Z,10.40
2018-12-26T07:12:40.514Z,10.46
2018-12-26T07:17:45.888Z,10.48
2018-12-26T07:22:51.320Z,10.48
2018-12-26T07:27:56.748Z,10.55
2018-12-26T07:33:02.128Z,10.27
2018-12-26T07:38:07.463Z,10.17
2018-12-26T07:43:12.894Z,10.12
2018-12-26T07:48:18.248Z,10.07
2018-12-26T07:53:23.693Z,9.92
2018-12-26T07:58:29.248Z,9.73
2018-12-26T08:03:34.753Z,9.69
2018-12-26T08:08:40.237Z,9.55
2018-12-26T08:13:45.662Z,9.53
2018-12-26T08:18:51.068Z,9.41
2018-12-26T08:23:56.443Z,9.43
2018-12-26T08:29:03.128Z,9.41
2018-12-26T08:34:08.578Z,9.25
2018-12-26T08:39:14.772Z,9.15
2018-12-26T08:44:20.198Z,9.09
2018-12-26T08:49:25.721Z,9.15
2018-12-26T08:54:31.323Z,9.19
2018-12-26T08:59:36.848Z,9.24
2018-12-26T09:04:42.205Z,9.31
2018-12-26T09:09:47.673Z,9.47
2018-12-26T09:14:53.177Z,9.64
2018-12-26T09:19:58.752Z,9.94
2018-12-26T09:25:04.292Z,10.13
2018-12-26T09:30:11.017Z,10.35
2018-12-26T09:35:16.559Z,10.35
2018-12-26T09:40:22.083Z,10.29
2018-12-26T09:45:27.495Z,10.33
2018-12-26T09:50:33.024Z,10.73
2018-12-26T09:55:38.439Z,11.04
2018-12-26T10:00:43.775Z,10.96
2018-12-26T10:05:49.150Z,11.28
2018-12-26T10:10:54.684Z,11.68
2018-12-26T10:16:00.018Z,11.18
2018-12-26T10:21:05.406Z,10.99
2018-12-26T10:26:10.720Z,10.93
2018-12-26T10:31:16.298Z,10.94
2018-12-26T10:36:21.691Z,11.01
2018-12-26T10:41:27.169Z,11.17
2018-12-26T10:46:32.453Z,11.48
2018-12-26T10:51:37.778Z,11.49
2018-12-26T10:56:43.134Z,11.67
2018-12-26T11:01:48.657Z,12.04
2018-12-26T11:06:54.104Z,12.72
2018-12-26T11:11:59.507Z,13.32
2018-12-26T11:17:05.038Z,12.34
2018-12-26T11:22:10.517Z,11.57
2018-12-26T11:27:16.008Z,11.10
2018-12-26T11:32:21.593Z,10.81
2018-12-26T11:37:26.943Z,10.86
2018-12-26T11:42:32.433Z,10.92
2018-12-26T11:47:37.868Z,10.92
2018-12-26T11:52:43.335Z,11.01
2018-12-26T11:57:48.768Z,11.06
2018-12-26T12:02:54.088Z,11.08
2018-12-26T12:07:59.537Z,11.15
2018-12-26T12:13:04.923Z,11.16
2018-12-26T12:18:10.533Z,11.05
2018-12-26T12:23:16.083Z,11.27
2018-12-26T12:28:21.442Z,11.11
2018-12-26T12:33:26.923Z,10.86
2018-12-26T12:38:32.618Z,10.72
2018-12-26T12:43:38.034Z,10.52
2018-12-26T12:48:43.344Z,10.49
2018-12-26T12:53:48.682Z,10.55
2018-12-26T12:58:54.218Z,10.67
2018-12-26T13:03:59.690Z,10.71
2018-12-26T13:09:06.631Z,10.81
2018-12-26T13:14:12.021Z,10.87
2018-12-26T13:19:17.408Z,10.84
2018-12-26T13:24:22.893Z,10.86
2018-12-26T13:29:28.173Z,11.08
2018-12-26T13:34:33.994Z,11.07
2018-12-26T13:39:39.495Z,11.14
2018-12-26T13:44:44.893Z,11.20
2018-12-26T13:49:50.206Z,11.09
2018-12-26T13:54:55.587Z,10.95
2018-12-26T14:00:02.426Z,10.90
2018-12-26T14:05:08.032Z,10.77
2018-12-26T14:10:13.402Z,10.63
2018-12-26T14:15:19.330Z,10.51
2018-12-26T14:20:24.762Z,10.52
2018-12-26T14:25:30.207Z,10.64
2018-12-26T14:30:35.759Z,10.76
2018-12-26T14:35:41.122Z,10.75
2018-12-26T14:40:46.535Z,10.67
2018-12-26T14:45:52.138Z,10.54
2018-12-26T14:50:57.419Z,10.29
2018-12-26T14:56:03.252Z,10.20
2018-12-26T15:01:08.561Z,10.14
2018-12-26T15:06:13.933Z,10.08
2018-12-26T15:11:19.230Z,9.96
2018-12-26T15:16:24.877Z,9.90
2018-12-26T15:21:30.358Z,9.79
2018-12-26T15:26:35.880Z,9.70
2018-12-26T15:31:41.342Z,9.66
2018-12-26T15:36:46.722Z,9.56
2018-12-26T15:41:52.123Z,9.46
2018-12-26T15:46:57.461Z,9.45
2018-12-26T15:52:03.357Z,9.44
2018-12-26T15:57:08.791Z,9.37
2018-12-26T16:02:14.222Z,9.28
2018-12-26T16:12:58.382Z,9.12
2018-12-26T16:18:04.013Z,9.06
2018-12-26T16:23:09.552Z,8.93
2018-12-26T16:28:18.022Z,8.90
2018-12-26T16:33:24.126Z,8.82
2018-12-26T16:38:29.441Z,8.79
2018-12-26T16:43:34.886Z,8.68
2018-12-26T16:48:40.296Z,8.64
2018-12-26T16:53:45.822Z,8.58
2018-12-26T16:58:51.269Z,8.63
2018-12-26T17:03:56.646Z,8.56
2018-12-26T17:09:02.041Z,8.56
2018-12-26T17:19:25.310Z,8.39
2018-12-26T17:24:30.741Z,8.36
2018-12-26T17:29:36.213Z,8.21
2018-12-26T17:34:41.536Z,8.20
2018-12-26T17:39:46.902Z,8.13
2018-12-26T17:44:52.305Z,8.08
2018-12-26T17:50:25.381Z,7.97
2018-12-26T17:55:55.393Z,8.10
2018-12-26T18:01:12.983Z,8.07
2018-12-26T18:06:18.746Z,7.97
2018-12-26T18:11:25.019Z,7.81
2018-12-26T18:16:31.576Z,7.91
2018-12-26T18:27:14.401Z,8.13
2018-12-26T18:32:19.799Z,8.19
2018-12-26T18:37:25.463Z,8.25
2018-12-26T18:42:30.918Z,8.07
2018-12-26T18:47:36.511Z,7.82
2018-12-26T18:52:41.856Z,7.89
2018-12-26T18:57:47.306Z,7.89
2018-12-26T19:02:52.635Z,7.83
2018-12-26T19:07:58.200Z,7.76
2018-12-26T19:13:03.682Z,7.88
2018-12-26T19:18:09.042Z,7.91
2018-12-26T19:23:14.551Z,7.74
2018-12-26T19:28:20.255Z,7.78
2018-12-26T19:33:25.592Z,7.78
2018-12-26T19:38:31.002Z,7.86
2018-12-26T19:43:36.273Z,7.77
2018-12-26T19:48:41.714Z,7.68
2018-12-26T19:53:47.257Z,7.56
2018-12-26T19:58:52.814Z,7.58
2018-12-26T20:04:01.442Z,7.76
2018-12-26T20:09:08.107Z,7.69
2018-12-26T20:14:13.382Z,7.70
2018-12-26T20:19:18.794Z,7.90
2018-12-26T20:24:24.262Z,8.04
2018-12-26T20:29:29.565Z,8.03
2018-12-26T20:34:35.062Z,7.84
2018-12-26T20:39:40.424Z,7.73
2018-12-26T20:44:45.812Z,7.68
2018-12-26T20:49:51.246Z,7.42
2018-12-26T20:54:56.746Z,7.47
2018-12-26T21:00:02.227Z,7.43
2018-12-26T21:05:08.537Z,7.29
2018-12-26T21:10:13.842Z,7.36
2018-12-26T21:15:19.272Z,7.45
2018-12-26T21:20:24.687Z,7.49
2018-12-26T21:25:30.190Z,7.49
2018-12-26T21:30:35.528Z,7.54
2018-12-26T21:35:41.027Z,7.60
2018-12-26T21:40:46.326Z,7.58
2018-12-26T21:45:51.717Z,7.58
2018-12-26T21:50:57.006Z,7.60
2018-12-26T21:56:02.490Z,7.63
2018-12-26T22:01:07.813Z,7.52
2018-12-26T22:06:13.121Z,7.56
2018-12-26T22:11:18.417Z,7.71
2018-12-26T22:16:23.826Z,7.70
2018-12-26T22:21:29.198Z,7.70
2018-12-26T22:26:34.546Z,7.73
2018-12-26T22:31:39.853Z,7.84
2018-12-26T22:36:45.192Z,7.61
2018-12-26T22:41:50.471Z,7.69
2018-12-26T22:46:56.036Z,7.90
2018-12-26T22:52:01.482Z,8.05
2018-12-26T22:57:06.958Z,8.08
2018-12-26T23:02:12.681Z,8.10
2018-12-26T23:07:18.377Z,8.05
2018-12-26T23:12:23.887Z,7.55
2018-12-26T23:17:29.531Z,7.21
2018-12-26T23:22:34.876Z,6.93
2018-12-26T23:27:40.318Z,6.96
2018-12-26T23:32:47.205Z,7.13
2018-12-26T23:37:53.084Z,7.18
2018-12-26T23:42:58.387Z,7.20
2018-12-26T23:48:03.951Z,7.16
2018-12-26T23:53:09.370Z,7.08
2018-12-26T23:58:14.963Z,7.17
